createdAt,value
2023-05-11T00:02:18.327Z,13.84
2023-05-11T00:04:44.904Z,13.93
2023-05-11T00:07:11.626Z,13.87
2023-05-11T00:09:38.644Z,13.83
2023-05-11T00:12:05.433Z,13.82
2023-05-11T00:14:32.094Z,13.87
2023-05-11T00:16:58.483Z,13.86
2023-05-11T00:19:24.907Z,13.78
2023-05-11T00:21:51.604Z,13.82
2023-05-11T00:24:18.033Z,13.78
2023-05-11T00:26:44.491Z,13.80
2023-05-11T00:29:10.940Z,13.82
2023-05-11T00:31:37.691Z,13.84
2023-05-11T00:34:04.266Z,13.84
2023-05-11T00:36:30.698Z,13.72
2023-05-11T00:38:57.337Z,13.74
2023-05-11T00:41:23.915Z,13.78
2023-05-11T00:43:50.471Z,13.74
2023-05-11T00:46:17.491Z,13.74
2023-05-11T00:48:44.472Z,13.74
2023-05-11T00:51:13.053Z,13.79
2023-05-11T00:53:39.426Z,13.74
2023-05-11T00:56:06.554Z,13.73
2023-05-11T00:58:33.200Z,13.72
2023-05-11T01:00:59.709Z,13.76
2023-05-11T01:03:26.589Z,13.84
2023-05-11T01:06:05.318Z,13.84
2023-05-11T01:08:52.796Z,13.81
2023-05-11T01:11:27.136Z,13.77
2023-05-11T01:13:56.731Z,13.76
2023-05-11T01:16:27.051Z,13.72
2023-05-11T01:19:05.076Z,13.75
2023-05-11T01:21:35.474Z,13.83
2023-05-11T01:24:14.266Z,13.81
2023-05-11T01:26:59.570Z,13.79
2023-05-11T01:29:45.195Z,13.73
2023-05-11T01:32:25.834Z,13.76
2023-05-11T01:35:17.492Z,13.84
2023-05-11T01:37:48.914Z,13.85
2023-05-11T01:40:18.171Z,13.89
2023-05-11T01:42:50.069Z,13.86
2023-05-11T01:45:17.700Z,13.81
2023-05-11T01:47:45.078Z,13.75
2023-05-11T01:50:12.239Z,13.78
2023-05-11T01:52:40.096Z,13.77
2023-05-11T01:55:08.023Z,13.75
2023-05-11T01:57:38.112Z,13.77
2023-05-11T02:00:05.626Z,13.75
2023-05-11T02:02:34.199Z,13.77
2023-05-11T02:05:01.766Z,13.77
2023-05-11T02:07:30.623Z,13.74
2023-05-11T02:09:58.997Z,13.72
2023-05-11T02:12:27.133Z,13.76
2023-05-11T02:14:54.845Z,13.78
2023-05-11T02:17:21.770Z,13.75
2023-05-11T02:19:49.510Z,13.79
2023-05-11T02:22:17.828Z,13.79
2023-05-11T02:24:44.752Z,13.80
2023-05-11T02:27:12.883Z,13.82
2023-05-11T02:29:39.540Z,13.77
2023-05-11T02:32:18.381Z,13.72
2023-05-11T02:34:54.289Z,13.71
2023-05-11T02:37:24.368Z,13.79
2023-05-11T02:40:00.188Z,13.86
2023-05-11T02:42:28.858Z,13.82
2023-05-11T02:45:01.050Z,13.83
2023-05-11T02:47:30.946Z,13.81
2023-05-11T02:50:01.462Z,13.77
2023-05-11T02:52:28.435Z,13.76
2023-05-11T02:54:56.818Z,13.77
2023-05-11T02:57:24.426Z,13.74
2023-05-11T02:59:51.492Z,13.70
2023-05-11T03:02:18.094Z,13.76
2023-05-11T03:04:44.852Z,13.78
2023-05-11T03:07:11.499Z,13.75
2023-05-11T03:09:38.072Z,13.67
2023-05-11T03:12:05.608Z,13.61
2023-05-11T03:14:34.149Z,13.61
2023-05-11T03:17:01.562Z,13.62
2023-05-11T03:19:29.179Z,13.62
2023-05-11T03:21:58.602Z,13.63
2023-05-11T03:24:26.108Z,13.63
2023-05-11T03:26:56.614Z,13.64
2023-05-11T03:29:25.795Z,13.69
2023-05-11T03:31:52.441Z,13.67
2023-05-11T03:34:18.834Z,13.65
2023-05-11T03:36:47.951Z,13.58
2023-05-11T03:39:16.165Z,13.55
2023-05-11T03:41:44.574Z,13.52
2023-05-11T03:44:13.247Z,13.54
2023-05-11T03:46:41.902Z,13.54
2023-05-11T03:49:10.241Z,13.51
2023-05-11T03:51:39.552Z,13.52
2023-05-11T03:54:06.795Z,13.51
2023-05-11T03:56:36.583Z,13.48
2023-05-11T03:59:04.186Z,13.42
2023-05-11T04:01:33.954Z,13.40
2023-05-11T04:04:00.568Z,13.48
2023-05-11T04:06:27.146Z,13.42
2023-05-11T04:08:53.585Z,13.41
2023-05-11T04:11:19.976Z,13.40
2023-05-11T04:13:46.401Z,13.44
2023-05-11T04:16:12.814Z,13.40
2023-05-11T04:18:39.349Z,13.48
2023-05-11T04:21:06.272Z,13.43
2023-05-11T04:23:32.690Z,13.45
2023-05-11T04:25:59.164Z,13.53
2023-05-11T04:28:27.730Z,13.56
2023-05-11T04:30:55.190Z,13.62
2023-05-11T04:33:21.788Z,13.65
2023-05-11T04:35:52.177Z,13.71
2023-05-11T04:38:19.744Z,13.69
2023-05-11T04:40:47.976Z,13.80
2023-05-11T04:43:15.018Z,13.83
2023-05-11T04:45:41.556Z,13.89
2023-05-11T04:48:08.348Z,13.89
2023-05-11T04:50:36.534Z,13.92
2023-05-11T04:53:02.978Z,13.96
2023-05-11T04:55:29.388Z,14.01
2023-05-11T04:57:55.830Z,14.02
2023-05-11T05:00:22.471Z,14.08
2023-05-11T05:02:51.059Z,14.08
2023-05-11T05:05:17.977Z,14.08
2023-05-11T05:07:45.221Z,14.15
2023-05-11T05:10:12.447Z,14.07
2023-05-11T05:12:39.341Z,14.12
2023-05-11T05:15:06.869Z,14.18
2023-05-11T05:17:33.725Z,14.19
2023-05-11T05:20:00.687Z,14.22
2023-05-11T05:22:27.112Z,14.23
2023-05-11T05:24:53.570Z,14.34
2023-05-11T05:27:20.020Z,14.42
2023-05-11T05:29:46.471Z,14.43
2023-05-11T05:32:12.954Z,14.41
2023-05-11T05:34:39.502Z,14.35
2023-05-11T05:37:06.435Z,14.20
2023-05-11T05:39:32.952Z,14.27
2023-05-11T05:41:59.344Z,14.31
2023-05-11T05:44:25.802Z,14.36
2023-05-11T05:46:52.255Z,14.41
2023-05-11T05:49:18.758Z,14.40
2023-05-11T05:51:45.514Z,14.37
2023-05-11T05:54:13.332Z,14.46
2023-05-11T05:56:40.814Z,14.56
2023-05-11T05:59:08.906Z,14.59
2023-05-11T06:01:36.038Z,14.57
2023-05-11T06:04:02.863Z,14.55
2023-05-11T06:06:29.348Z,14.55
2023-05-11T06:08:55.787Z,14.63
2023-05-11T06:11:22.613Z,14.71
2023-05-11T06:13:49.085Z,14.74
2023-05-11T06:16:15.961Z,14.76
2023-05-11T06:18:42.623Z,14.86
2023-05-11T06:21:09.167Z,14.92
2023-05-11T06:23:35.887Z,14.93
2023-05-11T06:26:02.396Z,14.87
2023-05-11T06:28:29.971Z,14.85
2023-05-11T06:30:58.230Z,14.82
2023-05-11T06:33:25.408Z,14.76
2023-05-11T06:35:52.113Z,14.73
2023-05-11T06:38:18.588Z,14.71
2023-05-11T06:40:45.040Z,14.72
2023-05-11T06:43:11.485Z,14.89
2023-05-11T06:45:37.948Z,15.02
2023-05-11T06:48:04.546Z,15.11
2023-05-11T06:50:31.479Z,15.14
2023-05-11T06:52:58.180Z,15.17
2023-05-11T06:55:24.794Z,15.12
2023-05-11T06:57:51.825Z,15.06
2023-05-11T07:00:18.744Z,15.14
2023-05-11T07:02:45.414Z,15.18
2023-05-11T07:05:13.173Z,15.01
2023-05-11T07:07:39.697Z,14.94
2023-05-11T07:10:06.691Z,14.96
2023-05-11T07:12:33.300Z,14.95
2023-05-11T07:14:59.774Z,14.87
2023-05-11T07:17:26.370Z,14.94
2023-05-11T07:19:53.068Z,15.06
2023-05-11T07:22:19.494Z,15.11
2023-05-11T07:24:46.701Z,15.11
2023-05-11T07:27:13.177Z,15.19
2023-05-11T07:29:39.650Z,15.15
2023-05-11T07:32:06.156Z,15.10
2023-05-11T07:34:32.536Z,15.14
2023-05-11T07:36:59.026Z,15.17
2023-05-11T07:39:25.582Z,15.18
2023-05-11T07:41:52.068Z,15.02
2023-05-11T07:44:18.645Z,14.76
2023-05-11T07:46:45.140Z,14.74
2023-05-11T07:49:18.617Z,14.99
2023-05-11T07:51:47.414Z,15.16
2023-05-11T07:54:14.107Z,15.16
2023-05-11T07:56:40.664Z,15.11
2023-05-11T07:59:07.445Z,15.17
2023-05-11T08:01:33.956Z,15.17
2023-05-11T08:04:00.880Z,15.26
2023-05-11T08:06:27.534Z,15.20
2023-05-11T08:08:54.099Z,15.20
2023-05-11T08:11:20.851Z,15.26
2023-05-11T08:13:47.444Z,15.18
2023-05-11T08:16:14.102Z,15.06
2023-05-11T08:18:40.658Z,15.04
2023-05-11T08:21:07.666Z,14.94
2023-05-11T08:23:34.246Z,14.80
2023-05-11T08:26:01.127Z,14.60
2023-05-11T08:28:27.725Z,14.46
2023-05-11T08:30:55.540Z,14.31
2023-05-11T08:33:36.575Z,14.53
2023-05-11T08:36:05.955Z,14.86
2023-05-11T08:38:33.292Z,15.12
2023-05-11T08:41:01.850Z,15.16
2023-05-11T08:43:29.976Z,15.36
2023-05-11T08:46:00.776Z,15.23
2023-05-11T08:48:27.875Z,15.12
2023-05-11T08:50:54.396Z,15.04
2023-05-11T08:53:20.973Z,15.15
2023-05-11T08:55:48.444Z,15.23
2023-05-11T08:58:19.392Z,15.34
2023-05-11T09:00:47.202Z,15.60
2023-05-11T09:03:14.367Z,15.63
2023-05-11T09:05:43.104Z,15.67
2023-05-11T09:08:12.416Z,15.70
2023-05-11T09:10:39.125Z,15.65
2023-05-11T09:13:06.013Z,15.72
2023-05-11T09:15:37.132Z,15.81
2023-05-11T09:18:05.014Z,16.04
2023-05-11T09:20:33.230Z,16.10
2023-05-11T09:23:00.187Z,16.03
2023-05-11T09:25:28.937Z,16.02
2023-05-11T09:27:59.407Z,15.98
2023-05-11T09:30:25.925Z,16.11
2023-05-11T09:32:54.619Z,16.23
2023-05-11T09:35:24.342Z,16.35
2023-05-11T09:38:02.896Z,16.29
2023-05-11T09:40:34.338Z,16.29
2023-05-11T09:43:01.854Z,16.33
2023-05-11T09:45:37.936Z,16.21
2023-05-11T09:48:06.234Z,16.14
2023-05-11T09:50:34.824Z,16.22
2023-05-11T09:53:01.773Z,16.34
2023-05-11T09:55:29.322Z,16.33
2023-05-11T09:57:58.287Z,16.29
2023-05-11T10:00:28.346Z,16.29
2023-05-11T10:03:03.204Z,16.31
2023-05-11T10:05:32.238Z,16.21
2023-05-11T10:08:01.256Z,16.24
2023-05-11T10:10:29.790Z,16.10
2023-05-11T10:12:59.325Z,15.88
2023-05-11T10:15:28.418Z,15.69
2023-05-11T10:17:57.135Z,15.51
2023-05-11T10:20:25.167Z,15.60
2023-05-11T10:22:56.140Z,15.70
2023-05-11T10:25:23.906Z,15.77
2023-05-11T10:27:51.275Z,15.81
2023-05-11T10:30:18.065Z,15.75
2023-05-11T10:32:47.618Z,15.64
2023-05-11T10:35:14.214Z,15.64
2023-05-11T10:37:42.623Z,15.61
2023-05-11T10:40:10.887Z,15.47
2023-05-11T10:43:01.825Z,15.50
2023-05-11T10:45:57.719Z,15.55
2023-05-11T10:49:12.246Z,15.71
2023-05-11T10:51:38.688Z,15.62
2023-05-11T10:54:19.511Z,15.68
2023-05-11T10:57:12.308Z,15.78
2023-05-11T10:59:57.862Z,16.04
2023-05-11T11:02:31.588Z,16.07
2023-05-11T11:05:01.243Z,16.19
2023-05-11T11:07:27.996Z,16.18
2023-05-11T11:10:00.760Z,16.29
2023-05-11T11:12:29.488Z,16.27
2023-05-11T11:15:05.452Z,16.17
2023-05-11T11:17:34.883Z,16.35
2023-05-11T11:20:08.806Z,16.55
2023-05-11T11:22:43.121Z,16.60
2023-05-11T11:25:10.901Z,16.56
2023-05-11T11:27:40.408Z,16.81
2023-05-11T11:30:18.137Z,16.84
2023-05-11T11:32:46.446Z,16.88
2023-05-11T11:35:41.575Z,16.69
2023-05-11T11:38:12.460Z,16.23
2023-05-11T11:43:18.897Z,15.93
2023-05-11T11:45:53.280Z,15.79
2023-05-11T11:48:40.328Z,15.85
2023-05-11T11:51:08.705Z,15.76
2023-05-11T11:53:38.300Z,15.65
2023-05-11T11:56:07.508Z,15.96
2023-05-11T11:58:43.195Z,16.16
2023-05-11T12:01:14.175Z,16.24
2023-05-11T12:03:42.182Z,16.29
2023-05-11T12:06:10.737Z,16.00
2023-05-11T12:08:38.875Z,16.12
2023-05-11T12:11:06.535Z,16.31
2023-05-11T12:13:34.211Z,16.34
2023-05-11T12:16:09.740Z,16.26
2023-05-11T12:18:36.608Z,16.14
2023-05-11T12:21:03.163Z,16.06
2023-05-11T12:23:30.507Z,16.10
2023-05-11T12:26:07.233Z,16.48
2023-05-11T12:28:33.902Z,16.77
2023-05-11T12:31:00.824Z,16.84
2023-05-11T12:33:27.549Z,16.95
2023-05-11T12:35:56.021Z,17.08
2023-05-11T12:38:23.201Z,16.64
2023-05-11T12:40:51.413Z,16.73
2023-05-11T12:43:22.715Z,16.70
2023-05-11T12:45:49.711Z,16.77
2023-05-11T12:48:19.926Z,16.40
2023-05-11T12:50:47.078Z,16.50
2023-05-11T12:53:17.671Z,16.24
2023-05-11T12:55:44.955Z,16.43
2023-05-11T12:58:18.780Z,16.27
2023-05-11T13:00:54.296Z,16.52
2023-05-11T13:03:25.495Z,17.07
2023-05-11T13:05:52.698Z,17.08
2023-05-11T13:08:19.905Z,17.37
2023-05-11T13:10:47.733Z,17.58
2023-05-11T13:13:27.913Z,17.72
2023-05-11T13:15:54.886Z,17.95
2023-05-11T13:18:21.624Z,17.77
2023-05-11T13:20:48.630Z,17.44
2023-05-11T13:23:16.031Z,17.49
2023-05-11T13:25:48.884Z,17.47
2023-05-11T13:28:16.559Z,17.38
2023-05-11T13:30:43.526Z,17.63
2023-05-11T13:33:10.291Z,17.50
2023-05-11T13:35:44.250Z,17.48
2023-05-11T13:38:11.749Z,17.73
2023-05-11T13:40:38.783Z,17.45
2023-05-11T13:43:05.388Z,17.45
2023-05-11T13:45:31.903Z,17.22
2023-05-11T13:47:58.346Z,17.16
2023-05-11T13:50:26.124Z,16.83
2023-05-11T13:52:53.643Z,16.80
2023-05-11T13:55:21.349Z,16.92
2023-05-11T13:57:48.217Z,16.92
2023-05-11T14:00:15.338Z,17.14
2023-05-11T14:02:42.034Z,17.45
2023-05-11T14:05:09.140Z,17.81
2023-05-11T14:07:46.343Z,17.53
2023-05-11T14:10:14.100Z,16.93
2023-05-11T14:12:41.235Z,16.94
2023-05-11T14:15:08.856Z,17.25
2023-05-11T14:17:35.488Z,16.90
2023-05-11T14:20:02.292Z,16.70
2023-05-11T14:22:29.188Z,16.94
2023-05-11T14:24:56.082Z,17.04
2023-05-11T14:27:23.633Z,16.98
2023-05-11T14:29:51.986Z,16.87
2023-05-11T14:32:21.468Z,16.79
2023-05-11T14:34:48.703Z,17.28
2023-05-11T14:37:15.160Z,17.59
2023-05-11T14:39:41.622Z,17.91
2023-05-11T14:42:08.411Z,18.22
2023-05-11T14:44:35.050Z,18.55
2023-05-11T14:47:01.636Z,18.79
2023-05-11T14:49:28.103Z,18.85
2023-05-11T14:51:54.828Z,18.97
2023-05-11T14:54:21.227Z,18.96
2023-05-11T14:56:53.638Z,18.52
2023-05-11T14:59:21.516Z,18.13
2023-05-11T15:01:49.471Z,18.43
2023-05-11T15:04:16.849Z,18.36
2023-05-11T15:06:43.775Z,18.58
2023-05-11T15:09:10.598Z,18.95
2023-05-11T15:11:39.904Z,19.24
2023-05-11T15:14:07.226Z,19.11
2023-05-11T15:16:33.803Z,19.04
2023-05-11T15:19:00.739Z,19.08
2023-05-11T15:21:27.560Z,18.92
2023-05-11T15:23:54.229Z,19.07
2023-05-11T15:26:21.530Z,19.26
2023-05-11T15:28:48.063Z,19.28
2023-05-11T15:31:14.554Z,19.48
2023-05-11T15:33:41.662Z,19.44
2023-05-11T15:36:12.194Z,19.32
2023-05-11T15:38:39.136Z,19.48
2023-05-11T15:41:05.697Z,18.79
2023-05-11T15:43:32.614Z,18.79
2023-05-11T15:45:59.251Z,18.63
2023-05-11T15:48:26.392Z,18.42
2023-05-11T15:50:53.110Z,18.31
2023-05-11T15:53:22.652Z,17.88
2023-05-11T15:55:51.123Z,17.60
2023-05-11T15:58:18.253Z,17.53
2023-05-11T16:00:44.725Z,17.62
2023-05-11T16:03:11.909Z,17.64
2023-05-11T16:05:39.070Z,17.54
2023-05-11T16:08:06.870Z,17.45
2023-05-11T16:10:33.476Z,17.43
2023-05-11T16:13:00.037Z,17.47
2023-05-11T16:15:26.605Z,17.79
2023-05-11T16:17:53.121Z,17.79
2023-05-11T16:20:19.873Z,17.53
2023-05-11T16:22:48.064Z,17.37
2023-05-11T16:25:14.531Z,17.50
2023-05-11T16:27:41.027Z,17.72
2023-05-11T16:30:18.282Z,17.86
2023-05-11T16:32:50.643Z,18.03
2023-05-11T16:35:17.117Z,18.14
2023-05-11T16:37:43.639Z,17.99
2023-05-11T16:40:10.334Z,17.82
2023-05-11T16:42:36.690Z,17.84
2023-05-11T16:45:03.234Z,17.80
2023-05-11T16:47:29.779Z,17.41
2023-05-11T16:49:56.267Z,17.31
2023-05-11T16:52:22.743Z,17.23
2023-05-11T16:54:49.252Z,16.75
2023-05-11T16:57:16.140Z,17.11
2023-05-11T16:59:42.561Z,16.96
2023-05-11T17:02:09.109Z,16.86
2023-05-11T17:04:35.743Z,16.87
2023-05-11T17:07:02.223Z,16.93
2023-05-11T17:09:28.661Z,17.04
2023-05-11T17:11:55.385Z,17.05
2023-05-11T17:14:22.070Z,16.94
2023-05-11T17:16:48.604Z,16.93
2023-05-11T17:19:15.445Z,16.80
2023-05-11T17:21:41.994Z,16.78
2023-05-11T17:24:08.496Z,16.79
2023-05-11T17:26:46.476Z,16.67
2023-05-11T17:29:17.658Z,16.61
2023-05-11T17:31:46.722Z,16.11
2023-05-11T17:34:13.521Z,16.29
2023-05-11T17:36:40.106Z,16.25
2023-05-11T17:39:06.755Z,16.24
2023-05-11T17:41:33.366Z,16.21
2023-05-11T17:43:59.901Z,16.20
2023-05-11T17:46:27.814Z,16.11
2023-05-11T17:48:54.483Z,16.12
2023-05-11T17:51:21.370Z,16.05
2023-05-11T17:53:50.459Z,15.91
2023-05-11T17:56:16.936Z,15.96
2023-05-11T17:58:43.678Z,15.92
2023-05-11T18:01:12.605Z,15.59
2023-05-11T18:03:39.732Z,15.52
2023-05-11T18:06:07.057Z,15.59
2023-05-11T18:08:34.175Z,15.30
2023-05-11T18:11:00.661Z,15.17
2023-05-11T18:13:28.633Z,15.28
2023-05-11T18:15:59.473Z,15.21
2023-05-11T18:18:26.248Z,15.18
2023-05-11T18:20:52.980Z,15.00
2023-05-11T18:23:19.516Z,15.01
2023-05-11T18:25:45.999Z,14.91
2023-05-11T18:28:12.440Z,14.87
2023-05-11T18:30:39.279Z,14.87
2023-05-11T18:33:06.017Z,14.81
2023-05-11T18:35:32.821Z,14.66
2023-05-11T18:37:59.897Z,14.45
2023-05-11T18:40:27.229Z,14.44
2023-05-11T18:42:53.936Z,14.20
2023-05-11T18:45:20.606Z,14.12
2023-05-11T18:47:47.411Z,14.01
2023-05-11T18:50:14.351Z,13.81
2023-05-11T18:52:40.791Z,13.96
2023-05-11T18:55:07.786Z,13.79
2023-05-11T18:57:34.620Z,14.03
2023-05-11T19:00:01.341Z,13.95
2023-05-11T19:02:27.991Z,13.85
2023-05-11T19:04:54.668Z,13.76
2023-05-11T19:07:21.044Z,13.80
2023-05-11T19:09:47.559Z,13.93
2023-05-11T19:12:13.993Z,13.84
2023-05-11T19:14:40.510Z,13.82
2023-05-11T19:17:07.046Z,13.78
2023-05-11T19:19:34.239Z,13.81
2023-05-11T19:22:00.842Z,13.82
2023-05-11T19:24:28.210Z,13.76
2023-05-11T19:27:05.922Z,13.80
2023-05-11T19:29:33.540Z,13.76
2023-05-11T19:32:00.054Z,13.69
2023-05-11T19:34:26.720Z,13.74
2023-05-11T19:36:53.148Z,13.71
2023-05-11T19:39:19.633Z,13.70
2023-05-11T19:41:46.229Z,13.70
2023-05-11T19:44:12.741Z,13.69
2023-05-11T19:46:45.694Z,13.64
2023-05-11T19:49:13.599Z,13.62
2023-05-11T19:51:39.939Z,13.57
2023-05-11T19:54:06.363Z,13.55
2023-05-11T19:56:32.937Z,13.59
2023-05-11T19:58:59.971Z,13.50
2023-05-11T20:01:26.494Z,13.54
2023-05-11T20:03:53.026Z,13.56
2023-05-11T20:06:19.520Z,13.55
2023-05-11T20:08:48.669Z,13.53
2023-05-11T20:11:15.559Z,13.55
2023-05-11T20:13:43.852Z,13.55
2023-05-11T20:16:10.650Z,13.51
2023-05-11T20:18:37.326Z,13.52
2023-05-11T20:21:04.296Z,13.49
2023-05-11T20:23:30.781Z,13.52
2023-05-11T20:25:57.228Z,13.52
2023-05-11T20:28:27.332Z,13.49
2023-05-11T20:30:56.277Z,13.54
2023-05-11T20:35:53.526Z,13.54
2023-05-11T20:38:20.256Z,13.52
2023-05-11T20:40:46.693Z,13.53
2023-05-11T20:43:14.541Z,13.47
2023-05-11T20:45:41.717Z,13.46
2023-05-11T20:48:08.384Z,13.45
2023-05-11T20:50:34.971Z,13.44
2023-05-11T20:53:01.489Z,13.41
2023-05-11T20:55:28.738Z,13.36
2023-05-11T20:57:55.196Z,13.29
2023-05-11T21:00:21.925Z,13.30
2023-05-11T21:02:48.793Z,13.28
2023-05-11T21:05:15.396Z,13.25
2023-05-11T21:07:41.867Z,13.25
2023-05-11T21:10:11.323Z,13.16
2023-05-11T21:12:37.785Z,13.17
2023-05-11T21:15:04.730Z,13.17
2023-05-11T21:17:31.225Z,13.16
2023-05-11T21:19:57.855Z,13.18
2023-05-11T21:22:24.273Z,13.14
2023-05-11T21:24:50.660Z,13.15
2023-05-11T21:27:17.222Z,13.16
2023-05-11T21:29:43.726Z,13.18
2023-05-11T21:32:10.256Z,13.17
2023-05-11T21:34:36.700Z,13.19
2023-05-11T21:37:03.583Z,13.21
2023-05-11T21:39:30.204Z,13.27
2023-05-11T21:41:56.879Z,13.29
2023-05-11T21:44:23.447Z,13.32
2023-05-11T21:46:50.477Z,13.31
2023-05-11T21:49:17.126Z,13.31
2023-05-11T21:51:43.638Z,13.30
2023-05-11T21:54:10.288Z,13.31
2023-05-11T21:56:36.899Z,13.29
2023-05-11T21:59:03.579Z,13.22
2023-05-11T22:01:30.056Z,13.20
2023-05-11T22:03:56.720Z,13.13
2023-05-11T22:06:23.310Z,13.14
2023-05-11T22:08:49.959Z,13.13
2023-05-11T22:11:16.372Z,13.11
2023-05-11T22:13:42.799Z,13.10
2023-05-11T22:16:09.219Z,13.09
2023-05-11T22:18:35.761Z,13.08
2023-05-11T22:21:02.730Z,13.10
2023-05-11T22:23:29.269Z,13.11
2023-05-11T22:25:55.716Z,13.06
2023-05-11T22:28:22.180Z,13.03
2023-05-11T22:30:48.684Z,13.01
2023-05-11T22:33:15.156Z,13.00
2023-05-11T22:35:42.695Z,13.00
2023-05-11T22:38:09.045Z,13.03
2023-05-11T22:40:35.452Z,13.02
2023-05-11T22:43:03.017Z,13.00
2023-05-11T22:45:29.558Z,13.03
2023-05-11T22:47:56.082Z,13.04
2023-05-11T22:50:22.652Z,13.04
2023-05-11T22:52:49.160Z,13.00
2023-05-11T22:55:15.693Z,13.02
2023-05-11T22:57:42.483Z,13.05
2023-05-11T23:00:12.324Z,13.02
2023-05-11T23:02:38.878Z,12.98
2023-05-11T23:05:05.862Z,12.99
2023-05-11T23:07:32.290Z,12.96
2023-05-11T23:09:58.943Z,12.91
2023-05-11T23:12:25.402Z,12.88
2023-05-11T23:14:52.376Z,12.86
2023-05-11T23:17:19.394Z,12.84
2023-05-11T23:19:45.819Z,12.84
2023-05-11T23:22:12.238Z,12.87
2023-05-11T23:24:38.619Z,12.88
2023-05-11T23:27:05.276Z,12.90
2023-05-11T23:29:31.888Z,12.92
2023-05-11T23:31:58.495Z,12.92
2023-05-11T23:34:25.013Z,12.83
2023-05-11T23:36:51.546Z,12.78
2023-05-11T23:39:17.900Z,12.75
2023-05-11T23:41:44.312Z,12.71
2023-05-11T23:44:11.002Z,12.70
2023-05-11T23:46:37.422Z,12.72
2023-05-11T23:49:04.345Z,12.74
2023-05-11T23:51:30.827Z,12.77
2023-05-11T23:53:57.338Z,12.80
2023-05-11T23:56:23.928Z,12.78
2023-05-11T23:58:50.791Z,12.79
